AAL746 KMEM-KDCA
Flight info
| Callsign | AAL746 |
|---|---|
| Flight time | N/A |
| Altitude | 37000 |
| Route | GOETZ7 DIYAB WAKOL Q34 SITTR TRUPS5 |
| Aircraft | A319/M-SDE3FGHIRWY/LB1 |
Departure
| Time | 2026-05-06 00:30 |
|---|---|
| Airport | Memphis International Airport (KMEM) |
Arrival
| Time | N/A |
|---|---|
| Airport | Ronald Reagan Washington National Airport (KDCA) |
| Time | Latitude | Longitude | Altitude | Speed | Heading |
|---|---|---|---|---|---|
| 2026-05-06 00:00 | 35.04124 | -89.98084 | 312 ft | 0 kts | 58° |
| 2026-05-06 00:15 | 35.04115 | -89.98102 | 311 ft | 4 kts | 58° |
| 2026-05-06 00:16 | 35.04101 | -89.98130 | 311 ft | 4 kts | 58° |
| 2026-05-06 00:16 | 35.04087 | -89.98158 | 311 ft | 4 kts | 58° |
| 2026-05-06 00:16 | 35.04077 | -89.98177 | 311 ft | 0 kts | 58° |
| 2026-05-06 00:21 | 35.04078 | -89.98177 | 310 ft | 1 kts | 58° |
| 2026-05-06 00:21 | 35.04075 | -89.98160 | 310 ft | 3 kts | 112° |
| 2026-05-06 00:22 | 35.04054 | -89.98117 | 312 ft | 8 kts | 120° |
| 2026-05-06 00:22 | 35.04040 | -89.98093 | 312 ft | 0 kts | 127° |
| 2026-05-06 00:23 | 35.04040 | -89.98092 | 312 ft | 0 kts | 126° |
| 2026-05-06 00:23 | 35.04027 | -89.98071 | 312 ft | 6 kts | 128° |
| 2026-05-06 00:23 | 35.03977 | -89.98041 | 313 ft | 10 kts | 167° |
| 2026-05-06 00:23 | 35.03906 | -89.98046 | 313 ft | 10 kts | 211° |
| 2026-05-06 00:24 | 35.03886 | -89.98140 | 310 ft | 14 kts | 269° |
| 2026-05-06 00:24 | 35.03885 | -89.98260 | 310 ft | 14 kts | 268° |
| 2026-05-06 00:24 | 35.03883 | -89.98374 | 312 ft | 14 kts | 269° |
| 2026-05-06 00:24 | 35.03881 | -89.98469 | 311 ft | 12 kts | 269° |
| 2026-05-06 00:25 | 35.03898 | -89.98578 | 309 ft | 14 kts | 319° |
| 2026-05-06 00:25 | 35.04001 | -89.98588 | 306 ft | 16 kts | 358° |
| 2026-05-06 00:25 | 35.04115 | -89.98592 | 306 ft | 17 kts | 357° |
| 2026-05-06 00:25 | 35.04241 | -89.98596 | 301 ft | 19 kts | 359° |
| 2026-05-06 00:26 | 35.04376 | -89.98599 | 300 ft | 20 kts | 359° |
| 2026-05-06 00:26 | 35.04508 | -89.98601 | 303 ft | 18 kts | 359° |
| 2026-05-06 00:26 | 35.04636 | -89.98605 | 302 ft | 19 kts | 358° |
| 2026-05-06 00:26 | 35.04769 | -89.98607 | 302 ft | 19 kts | 359° |
| 2026-05-06 00:27 | 35.04886 | -89.98610 | 306 ft | 12 kts | 358° |
| 2026-05-06 00:27 | 35.04915 | -89.98620 | 304 ft | 0 kts | 327° |
| 2026-05-06 00:29 | 35.04916 | -89.98621 | 304 ft | 2 kts | 326° |
| 2026-05-06 00:29 | 35.04928 | -89.98646 | 304 ft | 6 kts | 300° |
| 2026-05-06 00:29 | 35.04937 | -89.98716 | 303 ft | 8 kts | 269° |
| 2026-05-06 00:29 | 35.04907 | -89.98744 | 305 ft | 6 kts | 186° |
| 2026-05-06 00:30 | 35.04835 | -89.98742 | 303 ft | 26 kts | 179° |
| 2026-05-06 00:30 | 35.04391 | -89.98732 | 301 ft | 99 kts | 179° |
| 2026-05-06 00:30 | 35.03500 | -89.98712 | 360 ft | 149 kts | 180° |
| 2026-05-06 00:30 | 35.02461 | -89.98664 | 991 ft | 147 kts | 179° |
| 2026-05-06 00:31 | 35.01456 | -89.98617 | 1672 ft | 144 kts | 181° |
| 2026-05-06 00:31 | 35.00472 | -89.98567 | 2407 ft | 139 kts | 184° |
| 2026-05-06 00:31 | 34.99443 | -89.98527 | 2775 ft | 159 kts | 184° |
| 2026-05-06 00:31 | 34.98263 | -89.98299 | 3095 ft | 191 kts | 167° |
| 2026-05-06 00:32 | 34.97001 | -89.97475 | 3460 ft | 221 kts | 159° |
| 2026-05-06 00:32 | 34.95562 | -89.96500 | 3934 ft | 246 kts | 158° |
| 2026-05-06 00:32 | 34.94073 | -89.95375 | 4605 ft | 266 kts | 145° |
| 2026-05-06 00:32 | 34.93046 | -89.93405 | 5387 ft | 293 kts | 111° |
| 2026-05-06 00:33 | 34.92777 | -89.90891 | 6267 ft | 303 kts | 97° |
| 2026-05-06 00:33 | 34.92654 | -89.88301 | 7098 ft | 309 kts | 95° |
| 2026-05-06 00:33 | 34.92702 | -89.85656 | 7875 ft | 318 kts | 83° |
| 2026-05-06 00:33 | 34.93255 | -89.83018 | 8690 ft | 325 kts | 67° |
| 2026-05-06 00:34 | 34.94274 | -89.80548 | 9517 ft | 328 kts | 55° |
| 2026-05-06 00:34 | 34.95460 | -89.78135 | 10249 ft | 336 kts | 55° |
| 2026-05-06 00:34 | 34.96687 | -89.75596 | 10526 ft | 360 kts | 56° |
| 2026-05-06 00:34 | 34.97966 | -89.72905 | 11085 ft | 371 kts | 56° |
| 2026-05-06 00:35 | 34.99254 | -89.70149 | 11776 ft | 378 kts | 56° |
| 2026-05-06 00:35 | 35.00557 | -89.67339 | 12487 ft | 384 kts | 55° |
| 2026-05-06 00:35 | 35.01882 | -89.64481 | 13206 ft | 389 kts | 54° |
| 2026-05-06 00:35 | 35.03227 | -89.61588 | 13881 ft | 395 kts | 54° |
| 2026-05-06 00:36 | 35.04598 | -89.58656 | 14511 ft | 400 kts | 54° |
| 2026-05-06 00:36 | 35.05988 | -89.55687 | 15143 ft | 404 kts | 54° |
| 2026-05-06 00:36 | 35.07397 | -89.52685 | 15775 ft | 409 kts | 54° |
| 2026-05-06 00:36 | 35.08820 | -89.49653 | 16420 ft | 413 kts | 54° |
| 2026-05-06 00:37 | 35.10251 | -89.46594 | 17052 ft | 417 kts | 54° |
| 2026-05-06 00:37 | 35.11697 | -89.43499 | 17691 ft | 422 kts | 54° |
| 2026-05-06 00:37 | 35.13158 | -89.40367 | 18305 ft | 426 kts | 54° |
| 2026-05-06 00:37 | 35.14625 | -89.37217 | 18872 ft | 429 kts | 55° |
| 2026-05-06 00:38 | 35.16085 | -89.34076 | 19453 ft | 432 kts | 54° |
| 2026-05-06 00:38 | 35.17570 | -89.30879 | 20040 ft | 434 kts | 54° |
| 2026-05-06 00:38 | 35.19069 | -89.27649 | 20621 ft | 437 kts | 55° |
| 2026-05-06 00:38 | 35.20571 | -89.24409 | 21208 ft | 440 kts | 55° |
| 2026-05-06 00:39 | 35.21879 | -89.20981 | 21772 ft | 450 kts | 66° |
| 2026-05-06 00:39 | 35.22844 | -89.17320 | 22335 ft | 454 kts | 69° |
| 2026-05-06 00:39 | 35.23806 | -89.13570 | 22910 ft | 457 kts | 69° |
| 2026-05-06 00:39 | 35.24919 | -89.09995 | 23435 ft | 456 kts | 59° |
| 2026-05-06 00:40 | 35.26339 | -89.06536 | 23885 ft | 457 kts | 58° |
| 2026-05-06 00:40 | 35.27784 | -89.03038 | 24315 ft | 461 kts | 58° |
| 2026-05-06 00:40 | 35.29231 | -88.99513 | 24736 ft | 464 kts | 58° |
| 2026-05-06 00:40 | 35.30677 | -88.95972 | 25148 ft | 467 kts | 58° |
| 2026-05-06 00:41 | 35.32131 | -88.92398 | 25550 ft | 471 kts | 58° |
| 2026-05-06 00:41 | 35.33597 | -88.88801 | 25955 ft | 474 kts | 58° |
| 2026-05-06 00:41 | 35.35080 | -88.85170 | 26352 ft | 477 kts | 58° |
| 2026-05-06 00:41 | 35.36566 | -88.81530 | 26743 ft | 480 kts | 58° |
| 2026-05-06 00:42 | 35.38064 | -88.77849 | 27129 ft | 483 kts | 58° |
| 2026-05-06 00:42 | 35.39560 | -88.74163 | 27527 ft | 485 kts | 58° |
| 2026-05-06 00:42 | 35.41063 | -88.70451 | 27912 ft | 488 kts | 58° |
| 2026-05-06 00:42 | 35.42579 | -88.66706 | 28304 ft | 491 kts | 58° |
| 2026-05-06 00:43 | 35.44103 | -88.62942 | 28698 ft | 493 kts | 58° |
| 2026-05-06 00:43 | 35.45570 | -88.59317 | 29052 ft | 496 kts | 58° |
| 2026-05-06 00:43 | 35.47112 | -88.55500 | 29432 ft | 499 kts | 58° |
| 2026-05-06 00:43 | 35.48653 | -88.51672 | 29797 ft | 501 kts | 58° |
| 2026-05-06 00:44 | 35.50202 | -88.47814 | 30127 ft | 504 kts | 58° |
| 2026-05-06 00:44 | 35.51752 | -88.43953 | 30430 ft | 506 kts | 58° |
| 2026-05-06 00:44 | 35.53295 | -88.40112 | 30716 ft | 509 kts | 57° |
| 2026-05-06 00:44 | 35.54864 | -88.36208 | 31007 ft | 511 kts | 57° |
| 2026-05-06 00:45 | 35.56444 | -88.32275 | 31295 ft | 514 kts | 57° |
| 2026-05-06 00:45 | 35.58029 | -88.28318 | 31573 ft | 516 kts | 57° |
| 2026-05-06 00:45 | 35.59616 | -88.24348 | 31858 ft | 519 kts | 57° |
| 2026-05-06 00:45 | 35.61210 | -88.20367 | 32133 ft | 521 kts | 57° |
| 2026-05-06 00:46 | 35.62808 | -88.16370 | 32519 ft | 521 kts | 56° |
| 2026-05-06 00:46 | 35.64399 | -88.12366 | 32888 ft | 521 kts | 56° |
| 2026-05-06 00:46 | 35.65989 | -88.08361 | 33247 ft | 521 kts | 56° |
| 2026-05-06 00:46 | 35.67574 | -88.04368 | 33607 ft | 522 kts | 56° |
| 2026-05-06 00:47 | 35.69168 | -88.00348 | 33945 ft | 522 kts | 55° |
| 2026-05-06 00:47 | 35.70769 | -87.96306 | 34245 ft | 523 kts | 55° |
| 2026-05-06 00:47 | 35.72357 | -87.92287 | 34547 ft | 523 kts | 55° |
| 2026-05-06 00:47 | 35.73952 | -87.88257 | 34840 ft | 523 kts | 55° |
| 2026-05-06 00:48 | 35.75543 | -87.84241 | 35133 ft | 523 kts | 55° |
| 2026-05-06 00:48 | 35.77140 | -87.80200 | 35418 ft | 523 kts | 55° |
| 2026-05-06 00:48 | 35.78716 | -87.76175 | 35702 ft | 524 kts | 56° |
| 2026-05-06 00:48 | 35.80221 | -87.72051 | 36001 ft | 527 kts | 58° |
| 2026-05-06 00:49 | 35.81620 | -87.67890 | 36283 ft | 528 kts | 60° |
| 2026-05-06 00:49 | 35.82515 | -87.65086 | 36474 ft | 529 kts | 60° |
| 2026-05-06 00:49 | 35.84262 | -87.59475 | 36806 ft | 529 kts | 60° |
| 2026-05-06 00:50 | 35.86911 | -87.51095 | 36875 ft | 521 kts | 59° |
| 2026-05-06 00:50 | 35.89620 | -87.42827 | 36880 ft | 518 kts | 59° |
| 2026-05-06 00:51 | 35.91865 | -87.36072 | 36881 ft | 517 kts | 59° |
| 2026-05-06 00:51 | 35.94544 | -87.27941 | 36880 ft | 517 kts | 59° |
| 2026-05-06 00:52 | 35.97230 | -87.19642 | 36880 ft | 517 kts | 59° |
| 2026-05-06 00:52 | 35.99896 | -87.11390 | 36879 ft | 517 kts | 59° |
| 2026-05-06 00:53 | 36.02558 | -87.03132 | 36878 ft | 517 kts | 59° |
| 2026-05-06 00:53 | 36.05217 | -86.94890 | 36876 ft | 516 kts | 59° |
| 2026-05-06 00:54 | 36.07871 | -86.86643 | 36875 ft | 516 kts | 59° |
| 2026-05-06 00:54 | 36.10511 | -86.78390 | 36893 ft | 516 kts | 59° |
| 2026-05-06 00:55 | 36.13157 | -86.70144 | 36892 ft | 515 kts | 59° |
| 2026-05-06 00:55 | 36.15810 | -86.61911 | 36892 ft | 514 kts | 59° |
| 2026-05-06 00:56 | 36.18469 | -86.53753 | 36899 ft | 514 kts | 59° |
| 2026-05-06 00:56 | 36.21135 | -86.45533 | 36926 ft | 514 kts | 59° |
| 2026-05-06 00:57 | 36.23797 | -86.37319 | 36932 ft | 514 kts | 59° |
| 2026-05-06 00:57 | 36.26429 | -86.29093 | 36925 ft | 513 kts | 59° |
| 2026-05-06 00:58 | 36.29061 | -86.20880 | 36926 ft | 513 kts | 59° |
| 2026-05-06 00:58 | 36.31695 | -86.12642 | 36916 ft | 513 kts | 59° |
| 2026-05-06 00:59 | 36.34301 | -86.04460 | 36918 ft | 513 kts | 59° |
| 2026-05-06 00:59 | 36.36917 | -85.96233 | 36911 ft | 512 kts | 60° |
| 2026-05-06 01:00 | 36.39547 | -85.87967 | 36911 ft | 512 kts | 59° |
| 2026-05-06 01:00 | 36.42161 | -85.79743 | 36895 ft | 512 kts | 59° |
| 2026-05-06 01:01 | 36.44763 | -85.71516 | 36903 ft | 511 kts | 60° |
| 2026-05-06 01:01 | 36.47353 | -85.63295 | 36910 ft | 511 kts | 60° |
| 2026-05-06 01:02 | 36.49933 | -85.55045 | 36908 ft | 511 kts | 60° |
| 2026-05-06 01:02 | 36.52500 | -85.46816 | 36912 ft | 511 kts | 60° |
| 2026-05-06 01:03 | 36.55066 | -85.38578 | 36913 ft | 511 kts | 60° |
| 2026-05-06 01:03 | 36.57631 | -85.30334 | 36915 ft | 510 kts | 60° |
| 2026-05-06 01:04 | 36.60194 | -85.22094 | 36918 ft | 510 kts | 60° |
| 2026-05-06 01:04 | 36.62750 | -85.13837 | 36921 ft | 510 kts | 60° |
| 2026-05-06 01:05 | 36.65289 | -85.05598 | 36924 ft | 511 kts | 60° |
| 2026-05-06 01:05 | 36.67811 | -84.97387 | 36921 ft | 510 kts | 60° |
| 2026-05-06 01:06 | 36.70342 | -84.89127 | 36923 ft | 510 kts | 60° |
| 2026-05-06 01:06 | 36.72884 | -84.80798 | 36921 ft | 510 kts | 60° |
| 2026-05-06 01:07 | 36.75384 | -84.72581 | 36919 ft | 510 kts | 60° |
| 2026-05-06 01:07 | 36.77899 | -84.64297 | 36916 ft | 510 kts | 60° |
| 2026-05-06 01:08 | 36.80421 | -84.55972 | 36914 ft | 510 kts | 60° |
| 2026-05-06 01:08 | 36.82915 | -84.47746 | 36926 ft | 510 kts | 60° |
| 2026-05-06 01:09 | 36.85405 | -84.39474 | 36931 ft | 510 kts | 60° |
| 2026-05-06 01:09 | 36.87895 | -84.31177 | 36931 ft | 509 kts | 60° |
| 2026-05-06 01:10 | 36.90377 | -84.22883 | 36935 ft | 510 kts | 60° |
| 2026-05-06 01:10 | 36.92833 | -84.14634 | 36936 ft | 509 kts | 60° |
| 2026-05-06 01:11 | 36.95316 | -84.06281 | 36905 ft | 509 kts | 60° |
| 2026-05-06 01:11 | 36.97764 | -83.98020 | 36903 ft | 509 kts | 60° |
| 2026-05-06 01:12 | 37.00224 | -83.89709 | 36902 ft | 509 kts | 60° |
| 2026-05-06 01:12 | 37.02677 | -83.81395 | 36903 ft | 509 kts | 60° |
| 2026-05-06 01:13 | 37.05125 | -83.73083 | 36908 ft | 509 kts | 61° |
| 2026-05-06 01:13 | 37.07564 | -83.64752 | 36905 ft | 509 kts | 61° |
| 2026-05-06 01:14 | 37.11192 | -83.52314 | 36908 ft | 509 kts | 61° |
| 2026-05-06 01:14 | 37.13616 | -83.43978 | 36909 ft | 508 kts | 61° |
| 2026-05-06 01:15 | 37.16034 | -83.35650 | 36921 ft | 508 kts | 61° |
| 2026-05-06 01:15 | 37.18439 | -83.27318 | 36926 ft | 507 kts | 61° |
| 2026-05-06 01:16 | 37.20835 | -83.19003 | 36926 ft | 506 kts | 61° |
| 2026-05-06 01:16 | 37.23226 | -83.10703 | 36931 ft | 506 kts | 61° |
| 2026-05-06 01:17 | 37.25602 | -83.02396 | 36924 ft | 505 kts | 61° |
| 2026-05-06 01:17 | 37.27975 | -82.94095 | 36917 ft | 505 kts | 61° |
| 2026-05-06 01:18 | 37.30324 | -82.85841 | 36913 ft | 505 kts | 62° |
| 2026-05-06 01:18 | 37.32676 | -82.77536 | 36914 ft | 504 kts | 62° |
| 2026-05-06 01:19 | 37.35023 | -82.69228 | 36920 ft | 504 kts | 62° |
| 2026-05-06 01:19 | 37.37356 | -82.60938 | 36926 ft | 504 kts | 62° |
| 2026-05-06 01:20 | 37.39693 | -82.52632 | 36931 ft | 503 kts | 62° |
| 2026-05-06 01:20 | 37.42033 | -82.44325 | 36931 ft | 504 kts | 62° |
| 2026-05-06 01:21 | 37.44353 | -82.36016 | 36932 ft | 504 kts | 62° |
| 2026-05-06 01:21 | 37.46657 | -82.27705 | 36922 ft | 503 kts | 62° |
| 2026-05-06 01:22 | 37.48964 | -82.19378 | 36923 ft | 503 kts | 62° |
| 2026-05-06 01:22 | 37.51265 | -82.11068 | 36919 ft | 502 kts | 62° |
| 2026-05-06 01:23 | 37.53562 | -82.02757 | 36919 ft | 502 kts | 62° |
| 2026-05-06 01:23 | 37.55848 | -81.94455 | 36920 ft | 501 kts | 62° |
| 2026-05-06 01:24 | 37.58126 | -81.86130 | 36927 ft | 501 kts | 62° |
| 2026-05-06 01:24 | 37.60398 | -81.77837 | 36928 ft | 500 kts | 62° |
| 2026-05-06 01:25 | 37.62659 | -81.69538 | 36928 ft | 500 kts | 62° |
| 2026-05-06 01:25 | 37.64909 | -81.61252 | 36928 ft | 499 kts | 63° |
| 2026-05-06 01:26 | 37.67137 | -81.53009 | 36937 ft | 499 kts | 63° |
| 2026-05-06 01:26 | 37.69377 | -81.44711 | 36949 ft | 498 kts | 63° |
| 2026-05-06 01:27 | 37.71600 | -81.36431 | 36962 ft | 498 kts | 63° |
| 2026-05-06 01:27 | 37.73817 | -81.28132 | 36977 ft | 498 kts | 63° |
| 2026-05-06 01:28 | 37.76027 | -81.19837 | 36989 ft | 498 kts | 63° |
| 2026-05-06 01:28 | 37.78299 | -81.11585 | 36993 ft | 492 kts | 57° |
| 2026-05-06 01:29 | 37.81093 | -81.03739 | 36992 ft | 489 kts | 56° |
| 2026-05-06 01:29 | 37.83868 | -80.95879 | 36977 ft | 489 kts | 57° |
| 2026-05-06 01:30 | 37.86645 | -80.87993 | 36964 ft | 489 kts | 56° |
| 2026-05-06 01:30 | 37.89408 | -80.80156 | 36958 ft | 489 kts | 56° |
| 2026-05-06 01:31 | 37.92191 | -80.72339 | 36965 ft | 488 kts | 56° |
| 2026-05-06 01:31 | 37.94989 | -80.64496 | 36979 ft | 488 kts | 56° |
| 2026-05-06 01:32 | 37.97325 | -80.57923 | 36989 ft | 489 kts | 56° |
| 2026-05-06 01:32 | 38.00114 | -80.50035 | 36995 ft | 488 kts | 56° |
| 2026-05-06 01:33 | 38.02860 | -80.42237 | 36993 ft | 488 kts | 56° |
| 2026-05-06 01:33 | 38.05620 | -80.34369 | 36990 ft | 488 kts | 56° |
| 2026-05-06 01:34 | 38.08374 | -80.26497 | 36983 ft | 487 kts | 56° |
| 2026-05-06 01:34 | 38.11126 | -80.18676 | 36974 ft | 486 kts | 56° |
| 2026-05-06 01:35 | 38.13916 | -80.10861 | 36994 ft | 486 kts | 56° |
| 2026-05-06 01:35 | 38.16719 | -80.03025 | 36998 ft | 486 kts | 56° |
| 2026-05-06 01:36 | 38.19493 | -79.95191 | 36997 ft | 485 kts | 56° |
| 2026-05-06 01:36 | 38.22246 | -79.87357 | 37000 ft | 485 kts | 56° |
| 2026-05-06 01:37 | 38.24973 | -79.79562 | 36978 ft | 484 kts | 57° |
| 2026-05-06 01:37 | 38.27721 | -79.71705 | 36451 ft | 493 kts | 56° |
| 2026-05-06 01:38 | 38.29109 | -79.67729 | 35936 ft | 490 kts | 57° |
| 2026-05-06 01:38 | 38.30472 | -79.63768 | 35426 ft | 487 kts | 57° |
| 2026-05-06 01:38 | 38.31820 | -79.59823 | 34904 ft | 485 kts | 57° |
| 2026-05-06 01:38 | 38.33158 | -79.55904 | 34378 ft | 482 kts | 57° |
| 2026-05-06 01:39 | 38.34496 | -79.51990 | 33842 ft | 480 kts | 57° |
| 2026-05-06 01:39 | 38.35824 | -79.48109 | 33298 ft | 476 kts | 58° |
| 2026-05-06 01:39 | 38.37143 | -79.44254 | 32783 ft | 472 kts | 58° |
| 2026-05-06 01:39 | 38.38447 | -79.40431 | 32286 ft | 469 kts | 59° |
| 2026-05-06 01:40 | 38.39744 | -79.36623 | 31788 ft | 465 kts | 60° |
| 2026-05-06 01:40 | 38.41026 | -79.32861 | 31309 ft | 462 kts | 60° |
| 2026-05-06 01:40 | 38.42227 | -79.29069 | 30813 ft | 462 kts | 68° |
| 2026-05-06 01:40 | 38.43016 | -79.25117 | 30365 ft | 457 kts | 74° |
| 2026-05-06 01:41 | 38.43700 | -79.21183 | 29881 ft | 451 kts | 75° |
| 2026-05-06 01:41 | 38.44387 | -79.17283 | 29413 ft | 447 kts | 75° |
| 2026-05-06 01:41 | 38.45069 | -79.13442 | 28982 ft | 442 kts | 75° |
| 2026-05-06 01:41 | 38.45743 | -79.09638 | 28557 ft | 438 kts | 75° |
| 2026-05-06 01:42 | 38.46403 | -79.05908 | 28153 ft | 434 kts | 75° |
| 2026-05-06 01:42 | 38.47063 | -79.02156 | 27720 ft | 431 kts | 75° |
| 2026-05-06 01:42 | 38.47708 | -78.98446 | 27332 ft | 428 kts | 75° |
| 2026-05-06 01:42 | 38.48351 | -78.94738 | 26838 ft | 427 kts | 75° |
| 2026-05-06 01:43 | 38.48989 | -78.91048 | 26490 ft | 422 kts | 76° |
| 2026-05-06 01:43 | 38.49618 | -78.87411 | 25930 ft | 419 kts | 76° |
| 2026-05-06 01:43 | 38.50242 | -78.83782 | 25357 ft | 417 kts | 76° |
| 2026-05-06 01:43 | 38.50836 | -78.80183 | 24860 ft | 412 kts | 77° |
| 2026-05-06 01:44 | 38.51397 | -78.76625 | 24382 ft | 407 kts | 77° |
| 2026-05-06 01:44 | 38.51942 | -78.73095 | 23931 ft | 404 kts | 78° |
| 2026-05-06 01:44 | 38.52483 | -78.69562 | 23461 ft | 404 kts | 78° |
| 2026-05-06 01:44 | 38.53021 | -78.66049 | 22959 ft | 402 kts | 78° |
| 2026-05-06 01:45 | 38.53566 | -78.62562 | 22664 ft | 396 kts | 78° |
| 2026-05-06 01:45 | 38.54113 | -78.59123 | 22424 ft | 394 kts | 78° |
| 2026-05-06 01:45 | 38.54662 | -78.55696 | 22175 ft | 392 kts | 78° |
| 2026-05-06 01:45 | 38.55203 | -78.52321 | 21907 ft | 391 kts | 78° |
| 2026-05-06 01:46 | 38.55743 | -78.48930 | 21645 ft | 389 kts | 78° |
| 2026-05-06 01:46 | 38.56191 | -78.46102 | 21433 ft | 387 kts | 78° |
| 2026-05-06 01:46 | 38.56717 | -78.42769 | 21171 ft | 386 kts | 79° |
| 2026-05-06 01:46 | 38.57248 | -78.39400 | 20912 ft | 384 kts | 79° |
| 2026-05-06 01:47 | 38.57799 | -78.36054 | 20451 ft | 385 kts | 78° |
| 2026-05-06 01:47 | 38.58359 | -78.32814 | 20023 ft | 384 kts | 78° |
| 2026-05-06 01:47 | 38.58930 | -78.29595 | 19657 ft | 381 kts | 78° |
| 2026-05-06 01:47 | 38.59506 | -78.26383 | 19230 ft | 381 kts | 78° |
| 2026-05-06 01:48 | 38.60285 | -78.23168 | 18912 ft | 377 kts | 68° |
| 2026-05-06 01:48 | 38.61301 | -78.20054 | 18413 ft | 380 kts | 68° |
| 2026-05-06 01:48 | 38.61537 | -78.19330 | 18354 ft | 378 kts | 68° |
| 2026-05-06 01:48 | 38.62399 | -78.16665 | 18096 ft | 374 kts | 69° |
| 2026-05-06 01:49 | 38.63364 | -78.13671 | 17724 ft | 371 kts | 69° |
| 2026-05-06 01:49 | 38.64243 | -78.10948 | 17288 ft | 372 kts | 69° |
| 2026-05-06 01:49 | 38.66373 | -78.04355 | 16317 ft | 361 kts | 69° |
| 2026-05-06 01:50 | 38.67323 | -78.01397 | 15870 ft | 358 kts | 69° |
| 2026-05-06 01:50 | 38.68265 | -77.98470 | 15395 ft | 355 kts | 68° |
| 2026-05-06 01:50 | 38.69200 | -77.95562 | 14951 ft | 352 kts | 68° |
| 2026-05-06 01:50 | 38.69815 | -77.93639 | 14676 ft | 350 kts | 68° |
| 2026-05-06 01:51 | 38.71037 | -77.89806 | 14100 ft | 346 kts | 68° |
| 2026-05-06 01:51 | 38.71932 | -77.86999 | 13664 ft | 343 kts | 68° |
| 2026-05-06 01:51 | 38.72856 | -77.84193 | 13217 ft | 339 kts | 63° |
| 2026-05-06 01:51 | 38.74086 | -77.81659 | 12830 ft | 334 kts | 50° |
| 2026-05-06 01:52 | 38.75118 | -77.80128 | 12610 ft | 333 kts | 46° |
| 2026-05-06 01:52 | 38.76661 | -77.77922 | 12257 ft | 331 kts | 47° |
| 2026-05-06 01:52 | 38.78170 | -77.75751 | 11914 ft | 329 kts | 47° |
| 2026-05-06 01:52 | 38.79687 | -77.73564 | 11557 ft | 327 kts | 47° |
| 2026-05-06 01:53 | 38.81211 | -77.71356 | 11229 ft | 325 kts | 47° |
| 2026-05-06 01:53 | 38.82685 | -77.69213 | 10884 ft | 323 kts | 47° |
| 2026-05-06 01:53 | 38.84164 | -77.67017 | 10515 ft | 321 kts | 48° |
| 2026-05-06 01:53 | 38.85609 | -77.64838 | 10166 ft | 320 kts | 49° |
| 2026-05-06 01:54 | 38.87040 | -77.62670 | 9800 ft | 318 kts | 49° |
| 2026-05-06 01:54 | 38.88465 | -77.60512 | 9428 ft | 315 kts | 49° |
| 2026-05-06 01:54 | 38.89876 | -77.58379 | 9079 ft | 312 kts | 49° |
| 2026-05-06 01:54 | 38.91266 | -77.56280 | 8850 ft | 305 kts | 49° |
| 2026-05-06 01:55 | 38.92637 | -77.54207 | 8433 ft | 304 kts | 49° |
| 2026-05-06 01:55 | 38.93969 | -77.52123 | 8087 ft | 301 kts | 56° |
| 2026-05-06 01:55 | 38.94931 | -77.49816 | 7752 ft | 298 kts | 69° |
| 2026-05-06 01:55 | 38.95728 | -77.47394 | 7424 ft | 297 kts | 69° |
| 2026-05-06 01:56 | 38.96517 | -77.45023 | 7108 ft | 297 kts | 69° |
| 2026-05-06 01:56 | 38.97329 | -77.42609 | 6780 ft | 297 kts | 69° |
| 2026-05-06 01:56 | 38.98162 | -77.40136 | 6456 ft | 296 kts | 69° |
| 2026-05-06 01:56 | 38.98965 | -77.37741 | 6129 ft | 298 kts | 69° |
| 2026-05-06 01:57 | 38.99991 | -77.35371 | 5801 ft | 307 kts | 52° |
| 2026-05-06 01:57 | 39.01452 | -77.33362 | 5471 ft | 308 kts | 39° |
| 2026-05-06 01:57 | 39.03313 | -77.32102 | 5144 ft | 301 kts | 11° |
| 2026-05-06 01:57 | 39.05342 | -77.32025 | 4983 ft | 284 kts | 341° |
| 2026-05-06 01:58 | 39.06988 | -77.33037 | 5006 ft | 246 kts | 310° |
| 2026-05-06 01:58 | 39.07870 | -77.34708 | 5014 ft | 214 kts | 278° |
| 2026-05-06 01:58 | 39.07842 | -77.36505 | 5018 ft | 198 kts | 244° |
| 2026-05-06 01:58 | 39.07072 | -77.37938 | 5011 ft | 195 kts | 228° |
| 2026-05-06 01:59 | 39.06396 | -77.39448 | 5017 ft | 198 kts | 241° |
| 2026-05-06 01:59 | 39.05549 | -77.40781 | 5018 ft | 195 kts | 211° |
| 2026-05-06 01:59 | 39.04224 | -77.41149 | 5015 ft | 203 kts | 178° |
| 2026-05-06 01:59 | 39.02917 | -77.40358 | 5003 ft | 220 kts | 145° |
| 2026-05-06 02:00 | 39.02089 | -77.38633 | 4691 ft | 238 kts | 112° |
| 2026-05-06 02:00 | 39.01867 | -77.36490 | 4295 ft | 245 kts | 101° |
| 2026-05-06 02:00 | 39.01777 | -77.34317 | 3958 ft | 246 kts | 99° |
| 2026-05-06 02:00 | 39.01711 | -77.32119 | 3613 ft | 246 kts | 99° |
| 2026-05-06 02:01 | 39.01657 | -77.29941 | 3436 ft | 239 kts | 99° |
| 2026-05-06 02:01 | 39.01576 | -77.27834 | 3309 ft | 226 kts | 107° |
| 2026-05-06 02:01 | 39.01244 | -77.25974 | 3192 ft | 208 kts | 118° |
| 2026-05-06 02:01 | 39.00531 | -77.24512 | 3141 ft | 184 kts | 149° |